createdAt,value
2018-10-02T00:00:56.885Z,12.70
2018-10-02T00:01:56.836Z,12.50
2018-10-02T00:02:56.805Z,12.40
2018-10-02T00:03:56.809Z,11.70
2018-10-02T00:04:56.925Z,12.60
2018-10-02T00:05:56.785Z,11.10
2018-10-02T00:06:56.779Z,11.20
2018-10-02T00:07:56.790Z,11.70
2018-10-02T00:08:56.825Z,11.20
2018-10-02T00:09:56.910Z,11.90
2018-10-02T00:10:56.757Z,11.80
2018-10-02T00:11:56.800Z,11.20
2018-10-02T00:12:56.748Z,11.90
2018-10-02T00:13:56.780Z,11.80
2018-10-02T00:14:56.742Z,11.70
2018-10-02T00:15:56.818Z,12.00
2018-10-02T00:16:56.725Z,11.90
2018-10-02T00:17:56.722Z,11.60
2018-10-02T00:18:56.770Z,12.70
2018-10-02T00:19:56.733Z,12.10
2018-10-02T00:20:56.836Z,12.10
2018-10-02T00:21:56.676Z,11.10
2018-10-02T00:22:56.683Z,12.00
2018-10-02T00:23:56.676Z,11.80
2018-10-02T00:24:56.670Z,11.80
2018-10-02T00:25:56.752Z,12.10
2018-10-02T00:26:56.655Z,13.50
2018-10-02T00:27:56.658Z,12.60
2018-10-02T00:28:56.697Z,13.20
2018-10-02T00:29:56.665Z,13.00
2018-10-02T00:30:56.606Z,11.90
2018-10-02T00:31:56.698Z,11.40
2018-10-02T00:32:56.602Z,12.90
2018-10-02T00:33:56.578Z,13.30
2018-10-02T00:34:56.604Z,15.40
2018-10-02T00:35:56.663Z,17.00
2018-10-02T00:36:56.581Z,16.90
2018-10-02T00:37:56.579Z,18.00
2018-10-02T00:38:56.546Z,16.10
2018-10-02T00:39:56.553Z,16.00
2018-10-02T00:40:56.561Z,14.70
2018-10-02T00:41:56.567Z,13.80
2018-10-02T00:42:56.561Z,15.30
2018-10-02T00:43:56.571Z,13.40
2018-10-02T00:44:56.551Z,13.70
2018-10-02T00:45:56.609Z,12.80
2018-10-02T00:46:56.534Z,14.30
2018-10-02T00:47:56.583Z,14.40
2018-10-02T00:48:56.527Z,14.30
2018-10-02T00:49:56.478Z,13.90
2018-10-02T00:50:56.514Z,14.10
2018-10-02T00:51:56.456Z,13.50
2018-10-02T00:52:56.447Z,13.90
2018-10-02T00:53:56.492Z,14.80
2018-10-02T00:54:56.483Z,14.00
2018-10-02T00:55:56.446Z,13.80
2018-10-02T00:56:56.434Z,12.80
2018-10-02T00:57:56.410Z,13.50
2018-10-02T00:58:56.465Z,13.10
2018-10-02T00:59:56.416Z,14.10
2018-10-02T01:00:56.413Z,14.80
2018-10-02T01:01:56.378Z,14.40
2018-10-02T01:02:56.366Z,14.50
2018-10-02T01:03:56.383Z,14.10
2018-10-02T01:04:56.368Z,14.20
2018-10-02T01:05:56.369Z,13.90
2018-10-02T01:06:56.352Z,14.50
2018-10-02T01:07:56.340Z,13.40
2018-10-02T01:08:56.347Z,13.50
2018-10-02T01:09:56.323Z,14.80
2018-10-02T01:10:56.318Z,14.00
2018-10-02T01:11:56.324Z,16.00
2018-10-02T01:12:56.300Z,15.00
2018-10-02T01:13:56.313Z,15.70
2018-10-02T01:14:56.318Z,15.50
2018-10-02T01:15:56.298Z,14.10
2018-10-02T01:16:56.274Z,15.50
2018-10-02T01:17:56.411Z,15.70
2018-10-02T01:18:56.314Z,15.40
2018-10-02T01:19:56.289Z,16.40
2018-10-02T01:20:56.269Z,15.50
2018-10-02T01:21:56.276Z,15.20
2018-10-02T01:22:56.301Z,16.40
2018-10-02T01:23:56.322Z,17.00
2018-10-02T01:24:56.271Z,16.20
2018-10-02T01:25:56.247Z,17.80
2018-10-02T01:26:56.226Z,16.80
2018-10-02T01:27:56.405Z,17.60
2018-10-02T01:28:56.235Z,17.40
2018-10-02T01:29:56.224Z,16.10
2018-10-02T01:30:56.287Z,16.40
2018-10-02T01:31:56.240Z,16.20
2018-10-02T01:32:56.236Z,16.20
2018-10-02T01:33:56.247Z,16.80
2018-10-02T01:34:56.212Z,16.10
2018-10-02T01:35:56.222Z,17.00
2018-10-02T01:36:56.217Z,17.60
2018-10-02T01:37:56.201Z,16.80
2018-10-02T01:38:56.237Z,16.30
2018-10-02T01:39:56.147Z,17.20
2018-10-02T01:40:56.129Z,16.50
2018-10-02T01:41:56.118Z,17.30
2018-10-02T01:42:56.088Z,17.20
2018-10-02T01:43:56.202Z,18.20
2018-10-02T01:44:56.084Z,16.80
2018-10-02T01:45:56.075Z,18.00
2018-10-02T01:46:56.064Z,17.40
2018-10-02T01:47:56.056Z,18.30
2018-10-02T01:48:56.039Z,18.40
2018-10-02T01:49:56.018Z,19.70
2018-10-02T01:50:56.039Z,19.70
2018-10-02T01:51:56.015Z,18.70
2018-10-02T01:52:55.993Z,18.50
2018-10-02T01:53:56.012Z,19.40
2018-10-02T01:54:56.003Z,18.00
2018-10-02T01:55:56.003Z,18.90
2018-10-02T01:56:55.984Z,18.80
2018-10-02T01:57:55.981Z,18.70
2018-10-02T01:58:55.969Z,18.20
2018-10-02T01:59:55.941Z,19.10
2018-10-02T02:00:55.953Z,17.60
2018-10-02T02:01:55.956Z,19.40
2018-10-02T02:02:55.925Z,18.60
2018-10-02T02:03:55.927Z,19.50
2018-10-02T02:04:55.969Z,19.40
2018-10-02T02:05:55.935Z,18.70
2018-10-02T02:06:55.911Z,20.40
2018-10-02T02:07:55.894Z,19.60
2018-10-02T02:08:55.875Z,18.70
2018-10-02T02:09:55.933Z,19.60
2018-10-02T02:10:55.880Z,19.60
2018-10-02T02:11:55.842Z,18.80
2018-10-02T02:12:55.856Z,18.90
2018-10-02T02:13:55.845Z,19.80
2018-10-02T02:14:55.833Z,19.60
2018-10-02T02:15:55.840Z,19.80
2018-10-02T02:16:55.842Z,20.10
2018-10-02T02:17:55.838Z,19.60
2018-10-02T02:18:55.827Z,19.30
2018-10-02T02:19:55.958Z,20.30
2018-10-02T02:20:55.821Z,19.50
2018-10-02T02:21:55.818Z,19.70
2018-10-02T02:22:55.779Z,19.80
2018-10-02T02:23:55.821Z,20.80
2018-10-02T02:24:55.916Z,20.00
2018-10-02T02:25:55.767Z,19.90
2018-10-02T02:26:55.743Z,21.30
2018-10-02T02:27:55.757Z,20.70
2018-10-02T02:28:55.744Z,21.20
2018-10-02T02:29:55.744Z,20.80
2018-10-02T02:30:55.780Z,21.60
2018-10-02T02:31:55.728Z,21.80
2018-10-02T02:32:55.730Z,21.40
2018-10-02T02:33:55.722Z,20.80
2018-10-02T02:34:55.700Z,21.80
2018-10-02T02:35:55.698Z,21.40
2018-10-02T02:36:55.711Z,22.20
2018-10-02T02:37:55.663Z,23.00
2018-10-02T02:38:55.697Z,22.00
2018-10-02T02:39:55.666Z,21.60
2018-10-02T02:40:55.762Z,22.30
2018-10-02T02:41:55.656Z,23.10
2018-10-02T02:42:55.613Z,21.50
2018-10-02T02:43:55.633Z,22.60
2018-10-02T02:44:55.623Z,22.90
2018-10-02T02:45:55.611Z,23.00
2018-10-02T02:46:55.605Z,22.10
2018-10-02T02:47:55.592Z,23.60
2018-10-02T02:48:55.594Z,23.50
2018-10-02T02:49:55.588Z,23.90
2018-10-02T02:50:55.571Z,24.60
2018-10-02T02:51:55.663Z,23.00
2018-10-02T02:52:55.563Z,24.00
2018-10-02T02:53:55.551Z,24.90
2018-10-02T02:54:55.576Z,24.50
2018-10-02T02:55:55.519Z,23.90
2018-10-02T02:56:55.546Z,24.10
2018-10-02T02:57:55.527Z,23.70
2018-10-02T02:58:55.539Z,24.50
2018-10-02T02:59:55.484Z,25.10
2018-10-02T03:00:55.532Z,26.00
2018-10-02T03:01:55.501Z,25.60
2018-10-02T03:02:55.630Z,26.00
2018-10-02T03:03:55.478Z,26.70
2018-10-02T03:04:55.523Z,25.90
2018-10-02T03:05:55.503Z,26.40
2018-10-02T03:06:55.479Z,29.60
2018-10-02T03:07:55.441Z,26.80
2018-10-02T03:08:55.435Z,29.00
2018-10-02T03:09:55.435Z,28.80
2018-10-02T03:10:55.432Z,30.10
2018-10-02T03:11:55.458Z,30.20
2018-10-02T03:12:55.394Z,31.50
2018-10-02T03:13:55.417Z,32.10
2018-10-02T03:14:55.432Z,32.80
2018-10-02T03:15:55.425Z,31.80
2018-10-02T03:16:55.357Z,35.10
2018-10-02T03:17:55.370Z,35.50
2018-10-02T03:18:55.343Z,36.20
2018-10-02T03:19:55.353Z,35.20
2018-10-02T03:20:55.361Z,34.60
2018-10-02T03:21:55.388Z,34.20
2018-10-02T03:22:55.331Z,36.10
2018-10-02T03:23:55.324Z,35.40
2018-10-02T03:24:55.305Z,37.60
2018-10-02T03:25:55.315Z,36.20
2018-10-02T03:26:55.306Z,35.90
2018-10-02T03:27:55.305Z,36.90
2018-10-02T03:28:55.279Z,35.80
2018-10-02T03:29:55.300Z,37.70
2018-10-02T03:30:55.267Z,36.80
2018-10-02T03:31:55.256Z,38.30
2018-10-02T03:32:55.251Z,36.50
2018-10-02T03:33:55.254Z,36.40
2018-10-02T03:34:55.243Z,36.80
2018-10-02T03:35:55.279Z,36.10
2018-10-02T03:36:55.220Z,36.00
2018-10-02T03:37:55.263Z,35.40
2018-10-02T03:38:55.213Z,35.70
2018-10-02T03:39:55.226Z,36.20
2018-10-02T03:40:55.298Z,37.70
2018-10-02T03:41:55.180Z,36.90
2018-10-02T03:42:55.181Z,37.80
2018-10-02T03:43:55.156Z,38.50
2018-10-02T03:44:55.157Z,39.50
2018-10-02T03:45:55.133Z,38.70
2018-10-02T03:46:55.228Z,40.90
2018-10-02T03:47:55.195Z,40.60
2018-10-02T03:48:55.166Z,40.10
2018-10-02T03:49:55.130Z,40.80
2018-10-02T03:50:55.156Z,40.10
2018-10-02T03:51:55.111Z,39.30
2018-10-02T03:52:55.131Z,39.80
2018-10-02T03:53:55.080Z,38.80
2018-10-02T03:54:55.083Z,39.90
2018-10-02T03:55:55.087Z,51.20
2018-10-02T03:56:55.110Z,55.00
2018-10-02T03:57:55.077Z,48.40
2018-10-02T03:58:55.072Z,51.10
2018-10-02T03:59:55.057Z,92.00
2018-10-02T04:00:55.046Z,93.10
2018-10-02T04:01:55.051Z,61.00
2018-10-02T04:02:55.028Z,51.80
2018-10-02T04:03:55.025Z,44.00
2018-10-02T04:04:55.002Z,43.20
2018-10-02T04:05:55.044Z,43.80
2018-10-02T04:06:54.987Z,43.70
2018-10-02T04:07:55.022Z,43.30
2018-10-02T04:08:54.978Z,42.70
2018-10-02T04:09:54.971Z,45.70
2018-10-02T04:10:54.951Z,48.30
2018-10-02T04:11:54.973Z,56.30
2018-10-02T04:12:54.962Z,47.50
2018-10-02T04:13:54.932Z,45.40
2018-10-02T04:14:54.930Z,46.00
2018-10-02T04:15:54.913Z,43.20
2018-10-02T04:16:54.909Z,42.50
2018-10-02T04:17:54.897Z,41.80
2018-10-02T04:18:54.904Z,42.20
2018-10-02T04:19:54.883Z,42.90
2018-10-02T04:20:54.981Z,41.30
2018-10-02T04:21:54.879Z,41.60
2018-10-02T04:22:54.856Z,43.00
2018-10-02T04:23:54.860Z,43.50
2018-10-02T04:24:54.846Z,42.70
2018-10-02T04:25:54.885Z,42.90
2018-10-02T04:26:54.827Z,43.00
2018-10-02T04:27:54.830Z,43.20
2018-10-02T04:28:54.816Z,42.40
2018-10-02T04:29:54.812Z,42.50
2018-10-02T04:30:54.810Z,43.30
2018-10-02T04:31:54.771Z,41.90
2018-10-02T04:32:54.770Z,42.80
2018-10-02T04:33:54.843Z,42.00
2018-10-02T04:34:54.776Z,42.40
2018-10-02T04:35:54.738Z,43.20
2018-10-02T04:36:54.759Z,43.10
2018-10-02T04:37:54.737Z,44.00
2018-10-02T04:38:54.780Z,43.00
2018-10-02T04:39:54.734Z,40.70
2018-10-02T04:40:54.741Z,41.40
2018-10-02T04:41:54.729Z,41.00
2018-10-02T04:42:54.698Z,40.60
2018-10-02T04:43:54.696Z,42.60
2018-10-02T04:44:54.687Z,41.70
2018-10-02T04:45:54.676Z,40.80
2018-10-02T04:46:54.683Z,40.60
2018-10-02T04:47:54.652Z,39.20
2018-10-02T04:48:54.666Z,40.70
2018-10-02T04:49:54.657Z,40.60
2018-10-02T04:50:54.650Z,39.90
2018-10-02T04:51:54.645Z,38.60
2018-10-02T04:52:54.622Z,39.50
2018-10-02T04:53:54.629Z,38.50
2018-10-02T04:54:54.652Z,37.40
2018-10-02T04:55:54.780Z,37.40
2018-10-02T04:56:54.592Z,35.90
2018-10-02T04:57:54.563Z,34.70
2018-10-02T04:58:54.574Z,32.40
2018-10-02T04:59:54.581Z,30.20
2018-10-02T05:00:54.548Z,28.40
2018-10-02T05:01:54.566Z,28.30
2018-10-02T05:02:54.592Z,28.30
2018-10-02T05:03:54.530Z,26.80
2018-10-02T05:04:54.530Z,27.90
2018-10-02T05:05:54.555Z,26.10
2018-10-02T05:06:54.623Z,24.60
2018-10-02T05:07:54.482Z,25.90
2018-10-02T05:08:54.503Z,24.80
2018-10-02T05:09:54.495Z,25.20
2018-10-02T05:10:54.463Z,24.60
2018-10-02T05:11:54.717Z,24.70
2018-10-02T05:12:54.477Z,24.50
2018-10-02T05:13:54.448Z,24.70
2018-10-02T05:14:54.453Z,24.10
2018-10-02T05:15:54.436Z,25.80
2018-10-02T05:16:54.457Z,25.90
2018-10-02T05:17:54.412Z,25.80
2018-10-02T05:18:54.414Z,26.60
2018-10-02T05:19:54.400Z,26.00
2018-10-02T05:20:54.408Z,25.30
2018-10-02T05:21:54.380Z,25.10
2018-10-02T05:22:54.378Z,24.60
2018-10-02T05:23:54.378Z,22.00
2018-10-02T05:24:54.350Z,23.40
2018-10-02T05:25:54.355Z,24.70
2018-10-02T05:26:54.351Z,25.70
2018-10-02T05:27:54.327Z,24.60
2018-10-02T05:28:54.324Z,24.90
2018-10-02T05:29:54.301Z,25.80
2018-10-02T05:30:54.322Z,25.90
2018-10-02T05:31:54.293Z,26.70
2018-10-02T05:32:54.289Z,27.40
2018-10-02T05:33:54.275Z,26.50
2018-10-02T05:34:54.297Z,25.70
2018-10-02T05:35:54.273Z,26.20
2018-10-02T05:36:54.260Z,27.00
2018-10-02T05:37:54.257Z,26.70
2018-10-02T05:38:54.529Z,27.30
2018-10-02T05:39:54.228Z,26.70
2018-10-02T05:40:54.245Z,28.10
2018-10-02T05:41:54.225Z,29.00
2018-10-02T05:42:54.212Z,28.60
2018-10-02T05:43:54.191Z,28.80
2018-10-02T05:44:54.184Z,27.00
2018-10-02T05:45:54.183Z,27.80
2018-10-02T05:46:54.167Z,28.40
2018-10-02T05:47:54.186Z,28.80
2018-10-02T05:48:54.268Z,26.80
2018-10-02T05:49:54.202Z,27.30
2018-10-02T05:50:54.167Z,26.30
2018-10-02T05:51:54.137Z,25.80
2018-10-02T05:52:54.116Z,26.20
2018-10-02T05:53:54.107Z,25.60
2018-10-02T05:54:54.216Z,26.30
2018-10-02T05:55:54.143Z,27.00
2018-10-02T05:56:54.084Z,27.60
2018-10-02T05:57:54.085Z,27.40
2018-10-02T05:58:54.075Z,26.60
2018-10-02T05:59:54.087Z,28.20
2018-10-02T06:00:54.205Z,26.80
2018-10-02T06:01:54.071Z,26.60
2018-10-02T06:02:54.042Z,26.70
2018-10-02T06:03:54.083Z,26.00
2018-10-02T06:04:54.034Z,25.40
2018-10-02T06:05:54.029Z,25.80
2018-10-02T06:06:54.015Z,25.00
2018-10-02T06:07:54.014Z,24.40
2018-10-02T06:08:54.016Z,23.80
2018-10-02T06:09:54.098Z,25.30
2018-10-02T06:10:53.987Z,24.90
2018-10-02T06:11:53.981Z,24.60
2018-10-02T06:12:53.964Z,24.10
2018-10-02T06:13:53.970Z,24.60
2018-10-02T06:14:53.991Z,23.80
2018-10-02T06:15:53.981Z,25.00
2018-10-02T06:16:54.036Z,23.90
2018-10-02T06:17:53.963Z,24.20
2018-10-02T06:18:53.933Z,23.60
2018-10-02T06:19:53.917Z,25.10
2018-10-02T06:20:53.909Z,25.20
2018-10-02T06:21:53.939Z,24.30
2018-10-02T06:22:53.885Z,25.30
2018-10-02T06:23:53.879Z,24.90
2018-10-02T06:24:53.873Z,20.60
2018-10-02T06:25:53.861Z,21.40
2018-10-02T06:26:53.858Z,21.10
2018-10-02T06:27:53.948Z,19.60
2018-10-02T06:28:53.880Z,21.30
2018-10-02T06:29:53.840Z,21.70
2018-10-02T06:30:53.837Z,20.80
2018-10-02T06:31:53.815Z,20.70
2018-10-02T06:32:53.803Z,20.90
2018-10-02T06:33:53.957Z,21.60
2018-10-02T06:34:53.804Z,20.70
2018-10-02T06:35:53.787Z,20.90
2018-10-02T06:36:53.899Z,19.60
2018-10-02T06:37:53.772Z,20.20
2018-10-02T06:38:53.823Z,19.20
2018-10-02T06:39:53.736Z,20.00
2018-10-02T06:40:53.713Z,19.20
2018-10-02T06:41:53.747Z,18.50
2018-10-02T06:42:53.724Z,19.10
2018-10-02T06:43:53.700Z,19.80
2018-10-02T06:44:53.717Z,19.20
2018-10-02T06:45:53.678Z,19.20
2018-10-02T06:46:53.685Z,19.20
2018-10-02T06:47:53.683Z,19.70
2018-10-02T06:48:53.670Z,18.50
2018-10-02T06:49:53.654Z,19.60
2018-10-02T06:50:53.861Z,18.80
2018-10-02T06:51:53.715Z,19.00
2018-10-02T06:52:53.627Z,19.60
2018-10-02T06:53:53.628Z,22.40
2018-10-02T06:54:53.609Z,18.40
2018-10-02T06:55:53.613Z,18.40
2018-10-02T06:56:53.605Z,19.00
2018-10-02T06:57:53.636Z,19.10
2018-10-02T06:58:53.610Z,18.70
2018-10-02T06:59:53.587Z,18.20
2018-10-02T07:00:53.581Z,18.50
2018-10-02T07:01:53.597Z,18.50
2018-10-02T07:02:53.593Z,18.50
2018-10-02T07:03:53.539Z,17.90
2018-10-02T07:04:53.553Z,17.70
2018-10-02T07:05:53.537Z,18.50
2018-10-02T07:06:53.590Z,18.20
2018-10-02T07:07:53.511Z,18.70
2018-10-02T07:08:53.548Z,17.40
2018-10-02T07:09:53.499Z,18.50
2018-10-02T07:10:53.474Z,19.20
2018-10-02T07:11:53.579Z,22.60
2018-10-02T07:12:53.469Z,25.90
2018-10-02T07:13:53.471Z,28.70
2018-10-02T07:14:53.491Z,27.90
2018-10-02T07:15:53.436Z,27.60
2018-10-02T07:16:53.733Z,25.80
2018-10-02T07:17:53.452Z,24.70
2018-10-02T07:18:53.438Z,25.10
2018-10-02T07:19:53.396Z,25.00
2018-10-02T07:20:53.430Z,23.20
2018-10-02T07:21:53.389Z,23.10
2018-10-02T07:22:53.378Z,21.90
2018-10-02T07:23:53.377Z,22.30
2018-10-02T07:24:53.393Z,20.70
2018-10-02T07:25:53.369Z,20.10
2018-10-02T07:26:53.604Z,18.80
2018-10-02T07:27:53.805Z,20.20
2018-10-02T07:28:53.339Z,19.10
2018-10-02T07:29:53.331Z,19.60
2018-10-02T07:30:53.337Z,19.70
2018-10-02T07:31:53.325Z,20.40
2018-10-02T07:32:53.350Z,19.80
2018-10-02T07:33:53.367Z,19.40
2018-10-02T07:34:53.298Z,18.50
2018-10-02T07:35:53.320Z,18.60
2018-10-02T07:36:53.349Z,19.20
2018-10-02T07:37:53.277Z,20.00
2018-10-02T07:38:53.272Z,18.20
2018-10-02T07:39:53.264Z,19.10
2018-10-02T07:40:53.248Z,18.60
2018-10-02T07:41:53.238Z,18.80
2018-10-02T07:42:53.215Z,17.30
2018-10-02T07:43:53.237Z,17.70
2018-10-02T07:44:53.269Z,19.10
2018-10-02T07:45:53.200Z,18.40
2018-10-02T07:46:53.209Z,19.00
2018-10-02T07:47:53.213Z,17.90
2018-10-02T07:48:53.178Z,17.70
2018-10-02T07:49:53.195Z,17.40
2018-10-02T07:50:53.185Z,17.30
2018-10-02T07:51:53.175Z,17.00
2018-10-02T07:52:53.136Z,17.10
2018-10-02T07:53:53.203Z,17.10
2018-10-02T07:54:53.147Z,16.90
2018-10-02T07:55:53.125Z,16.10
2018-10-02T07:56:53.256Z,15.60
2018-10-02T07:57:53.102Z,15.40
2018-10-02T07:58:53.114Z,17.10
2018-10-02T07:59:53.148Z,17.50
2018-10-02T08:00:53.082Z,17.40
2018-10-02T08:01:53.069Z,17.70
2018-10-02T08:02:53.134Z,17.60
2018-10-02T08:03:53.050Z,17.70
2018-10-02T08:04:53.155Z,18.10
2018-10-02T08:05:53.067Z,16.90
2018-10-02T08:06:53.053Z,17.80
2018-10-02T08:07:53.152Z,18.60
2018-10-02T08:08:53.090Z,18.20
2018-10-02T08:09:53.008Z,18.00
2018-10-02T08:10:53.065Z,17.80
2018-10-02T08:11:53.019Z,18.70
2018-10-02T08:12:52.999Z,18.20
2018-10-02T08:13:52.994Z,19.30
2018-10-02T08:14:53.022Z,17.50
2018-10-02T08:15:52.947Z,17.20
2018-10-02T08:16:52.934Z,17.90
2018-10-02T08:17:52.980Z,19.40
2018-10-02T08:18:53.045Z,21.40
2018-10-02T08:19:52.926Z,21.50
2018-10-02T08:20:52.936Z,22.00
2018-10-02T08:21:52.916Z,22.30
2018-10-02T08:22:52.916Z,22.40
2018-10-02T08:23:52.935Z,22.60
2018-10-02T08:24:52.994Z,24.80
2018-10-02T08:25:52.927Z,23.70
2018-10-02T08:26:52.943Z,24.60
2018-10-02T08:27:52.852Z,26.80
2018-10-02T08:28:52.856Z,29.60
2018-10-02T08:29:52.918Z,28.90
2018-10-02T08:30:52.845Z,27.60
2018-10-02T08:31:52.845Z,28.20
2018-10-02T08:32:52.886Z,29.70
2018-10-02T08:33:52.822Z,31.80
2018-10-02T08:34:52.800Z,30.60
2018-10-02T08:35:52.959Z,29.60
2018-10-02T08:36:52.778Z,31.50
2018-10-02T08:37:52.774Z,30.10
2018-10-02T08:38:52.880Z,31.10
2018-10-02T08:39:52.763Z,29.00
2018-10-02T08:40:52.750Z,30.00
2018-10-02T08:41:52.761Z,30.50
2018-10-02T08:42:52.726Z,29.10
2018-10-02T08:43:52.745Z,29.70
2018-10-02T08:44:52.766Z,28.50
2018-10-02T08:45:52.706Z,29.70
2018-10-02T08:46:52.707Z,30.40
2018-10-02T08:47:52.730Z,29.20
2018-10-02T08:48:52.677Z,29.70
2018-10-02T08:49:52.680Z,28.60
2018-10-02T08:50:52.743Z,28.10
2018-10-02T08:51:52.749Z,29.40
2018-10-02T08:52:52.665Z,30.70
2018-10-02T08:53:52.685Z,29.70
2018-10-02T08:54:52.631Z,28.80
2018-10-02T08:55:52.638Z,30.00
2018-10-02T08:56:52.657Z,27.50
2018-10-02T08:57:52.613Z,30.60
2018-10-02T08:58:52.616Z,29.60
2018-10-02T08:59:52.617Z,30.20
2018-10-02T09:00:52.579Z,31.90
2018-10-02T09:01:52.585Z,31.70
2018-10-02T09:02:52.582Z,33.10
2018-10-02T09:03:52.551Z,32.80
2018-10-02T09:04:52.567Z,32.60
2018-10-02T09:05:52.554Z,34.80
2018-10-02T09:06:52.547Z,32.00
2018-10-02T09:07:52.523Z,33.70
2018-10-02T09:08:52.514Z,33.50
2018-10-02T09:09:52.518Z,34.90
2018-10-02T09:10:52.529Z,34.30
2018-10-02T09:11:52.512Z,35.00
2018-10-02T09:12:52.542Z,34.80
2018-10-02T09:13:52.506Z,36.50
2018-10-02T09:14:52.475Z,37.30
2018-10-02T09:15:52.557Z,36.80
2018-10-02T09:16:52.501Z,36.80
2018-10-02T09:17:52.460Z,37.50
2018-10-02T09:18:52.459Z,35.70
2018-10-02T09:19:52.441Z,36.00
2018-10-02T09:20:52.489Z,36.50
2018-10-02T09:21:52.448Z,34.40
2018-10-02T09:22:52.418Z,34.90
2018-10-02T09:23:52.432Z,35.60
2018-10-02T09:24:52.429Z,40.50
2018-10-02T09:25:52.388Z,35.50
2018-10-02T09:26:52.381Z,34.10
2018-10-02T09:27:52.429Z,33.40
2018-10-02T09:28:52.352Z,36.00
2018-10-02T09:29:52.352Z,32.70
2018-10-02T09:30:52.505Z,34.00
2018-10-02T09:31:52.344Z,33.50
2018-10-02T09:32:52.320Z,35.50
2018-10-02T09:33:52.348Z,34.80
2018-10-02T09:34:52.359Z,34.10
2018-10-02T09:35:52.328Z,36.70
2018-10-02T09:36:52.313Z,34.30
2018-10-02T09:37:52.322Z,34.20
2018-10-02T09:38:52.301Z,32.20
2018-10-02T09:39:52.326Z,34.80
2018-10-02T09:40:52.246Z,33.20
2018-10-02T09:41:52.267Z,34.60
2018-10-02T09:42:52.279Z,34.40
2018-10-02T09:43:52.394Z,34.50
2018-10-02T09:44:52.233Z,34.80
2018-10-02T09:45:52.267Z,36.30
2018-10-02T09:46:52.205Z,35.30
2018-10-02T09:47:52.196Z,34.40
2018-10-02T09:48:52.222Z,34.10
2018-10-02T09:49:52.385Z,32.60
2018-10-02T09:50:52.222Z,35.50
2018-10-02T09:51:52.197Z,34.10
2018-10-02T09:52:52.160Z,33.60
2018-10-02T09:53:52.153Z,32.00
2018-10-02T09:54:52.160Z,34.90
2018-10-02T09:55:52.404Z,39.10
2018-10-02T09:56:52.182Z,31.50
2018-10-02T09:57:52.116Z,31.20
2018-10-02T09:58:52.109Z,30.70
2018-10-02T09:59:52.103Z,29.30
2018-10-02T10:00:52.109Z,31.60
2018-10-02T10:01:52.101Z,32.20
2018-10-02T10:02:52.133Z,31.10
2018-10-02T10:03:52.075Z,30.40
2018-10-02T10:04:52.080Z,31.50
2018-10-02T10:05:52.061Z,30.60
2018-10-02T10:06:52.042Z,30.60
2018-10-02T10:07:52.062Z,30.20
2018-10-02T10:08:52.050Z,30.00
2018-10-02T10:09:52.017Z,30.30
2018-10-02T10:10:52.020Z,30.80
2018-10-02T10:11:52.034Z,31.40
2018-10-02T10:12:52.006Z,31.70
2018-10-02T10:13:52.005Z,29.50
2018-10-02T10:14:52.040Z,30.70
2018-10-02T10:15:51.965Z,32.40
2018-10-02T10:16:52.333Z,30.30
2018-10-02T10:17:51.980Z,30.00
2018-10-02T10:18:51.955Z,29.60
2018-10-02T10:19:51.962Z,29.90
2018-10-02T10:20:51.937Z,32.10
2018-10-02T10:21:51.940Z,29.60
2018-10-02T10:22:51.967Z,31.60
2018-10-02T10:23:51.973Z,31.90
2018-10-02T10:24:51.924Z,30.70
2018-10-02T10:25:51.895Z,32.10
2018-10-02T10:26:51.887Z,31.70
2018-10-02T10:27:51.902Z,31.90
2018-10-02T10:28:51.903Z,34.10
2018-10-02T10:29:51.856Z,32.00
2018-10-02T10:30:51.875Z,31.80
2018-10-02T10:31:51.844Z,32.10
2018-10-02T10:32:51.872Z,32.20
2018-10-02T10:33:51.865Z,30.40
2018-10-02T10:34:51.915Z,31.70
2018-10-02T10:35:51.815Z,32.60
2018-10-02T10:36:51.814Z,31.70
2018-10-02T10:37:51.819Z,30.20
2018-10-02T10:38:51.829Z,30.30
2018-10-02T10:39:51.881Z,31.00
2018-10-02T10:40:51.803Z,31.20
2018-10-02T10:41:51.793Z,30.50
2018-10-02T10:42:51.762Z,30.20
2018-10-02T10:43:51.748Z,30.50
2018-10-02T10:44:51.775Z,30.80
2018-10-02T10:45:51.751Z,31.00
2018-10-02T10:46:51.763Z,31.80
2018-10-02T10:47:51.748Z,30.70
2018-10-02T10:48:51.731Z,30.00
2018-10-02T10:49:51.713Z,30.20
2018-10-02T10:50:51.724Z,31.50
2018-10-02T10:51:51.709Z,29.00
2018-10-02T10:52:51.753Z,29.10
2018-10-02T10:53:51.705Z,28.50
2018-10-02T10:54:51.694Z,27.10
2018-10-02T10:55:51.691Z,29.30
2018-10-02T10:56:51.689Z,28.60
2018-10-02T10:57:51.675Z,30.70
2018-10-02T10:58:51.736Z,30.90
2018-10-02T10:59:51.649Z,29.90
2018-10-02T11:00:51.650Z,31.00
2018-10-02T11:01:51.680Z,31.10
2018-10-02T11:02:51.664Z,30.30
2018-10-02T11:03:51.610Z,29.50
2018-10-02T11:04:51.639Z,29.80
2018-10-02T11:05:51.609Z,28.70
2018-10-02T11:06:51.599Z,30.00
2018-10-02T11:07:51.614Z,31.00
2018-10-02T11:08:51.578Z,29.70
2018-10-02T11:09:51.588Z,30.00
2018-10-02T11:10:51.593Z,28.70
2018-10-02T11:11:51.572Z,28.60
2018-10-02T11:12:51.562Z,29.50
2018-10-02T11:13:51.651Z,28.70
2018-10-02T11:14:51.558Z,29.70
2018-10-02T11:15:51.549Z,28.90
2018-10-02T11:16:51.518Z,27.70
2018-10-02T11:17:51.517Z,29.70
2018-10-02T11:18:51.511Z,28.40
2018-10-02T11:19:51.545Z,29.50
2018-10-02T11:20:51.504Z,28.50
2018-10-02T11:21:51.539Z,28.90
2018-10-02T11:22:51.486Z,29.80
2018-10-02T11:23:51.490Z,29.20
2018-10-02T11:24:51.458Z,28.30
2018-10-02T11:25:51.513Z,28.40
2018-10-02T11:26:51.500Z,29.30
2018-10-02T11:27:51.452Z,30.40
2018-10-02T11:28:51.456Z,30.80
2018-10-02T11:29:51.507Z,29.50
2018-10-02T11:30:51.550Z,28.60
2018-10-02T11:31:51.481Z,29.70
2018-10-02T11:32:51.458Z,29.20
2018-10-02T11:33:51.428Z,30.00
2018-10-02T11:34:51.405Z,29.40
2018-10-02T11:35:51.402Z,30.50
2018-10-02T11:36:51.383Z,29.70
2018-10-02T11:37:51.486Z,27.80
2018-10-02T11:38:51.385Z,28.70
2018-10-02T11:39:51.373Z,27.90
2018-10-02T11:40:51.629Z,27.50
2018-10-02T11:41:51.348Z,29.60
2018-10-02T11:42:51.388Z,27.40
2018-10-02T11:43:51.434Z,27.40
2018-10-02T11:44:51.461Z,26.60
2018-10-02T11:45:51.417Z,26.50
2018-10-02T11:46:51.363Z,25.80
2018-10-02T11:47:51.325Z,26.90
2018-10-02T11:48:51.314Z,26.20
2018-10-02T11:49:51.444Z,25.40
2018-10-02T11:50:51.320Z,24.90
2018-10-02T11:51:51.273Z,24.00
2018-10-02T11:52:51.317Z,24.10
2018-10-02T11:53:51.315Z,24.10
2018-10-02T11:54:51.244Z,24.20
2018-10-02T11:55:51.325Z,24.50
2018-10-02T11:56:51.256Z,23.10
2018-10-02T11:57:51.242Z,24.30
2018-10-02T11:58:51.244Z,22.60
2018-10-02T11:59:51.284Z,23.20
2018-10-02T12:00:51.308Z,21.90
2018-10-02T12:01:51.238Z,19.30
2018-10-02T12:02:51.261Z,19.60
2018-10-02T12:03:51.289Z,20.00
2018-10-02T12:04:51.204Z,19.90
2018-10-02T12:05:51.170Z,18.40
2018-10-02T12:06:51.234Z,18.20
2018-10-02T12:07:51.165Z,17.10
2018-10-02T12:08:51.194Z,17.50
2018-10-02T12:09:51.170Z,17.00
2018-10-02T12:10:51.152Z,17.20
2018-10-02T12:11:51.169Z,17.10
2018-10-02T12:12:51.162Z,16.70
2018-10-02T12:13:51.365Z,17.30
2018-10-02T12:14:51.282Z,17.30
2018-10-02T12:15:51.166Z,15.10
2018-10-02T12:16:51.129Z,16.00
2018-10-02T12:17:51.132Z,15.30
2018-10-02T12:18:51.106Z,15.80
2018-10-02T12:19:51.270Z,16.80
2018-10-02T12:20:51.120Z,14.20
2018-10-02T12:21:51.123Z,15.30
2018-10-02T12:22:51.105Z,16.10
2018-10-02T12:23:51.104Z,16.60
2018-10-02T12:24:51.082Z,16.80
2018-10-02T12:25:51.090Z,17.10
2018-10-02T12:26:51.090Z,17.20
2018-10-02T12:27:51.082Z,78.40
2018-10-02T12:28:51.095Z,20.00
2018-10-02T12:29:51.121Z,17.00
2018-10-02T12:30:51.081Z,15.20
2018-10-02T12:31:51.076Z,14.60
2018-10-02T12:32:51.058Z,15.70
2018-10-02T12:33:51.058Z,15.70
2018-10-02T12:34:51.067Z,15.50
2018-10-02T12:35:51.061Z,15.00
2018-10-02T12:36:51.030Z,14.70
2018-10-02T12:37:51.030Z,13.30
2018-10-02T12:38:51.065Z,13.50
2018-10-02T12:39:51.057Z,14.20
2018-10-02T12:40:51.016Z,14.00
2018-10-02T12:41:51.051Z,13.80
2018-10-02T12:42:51.045Z,13.00
2018-10-02T12:43:51.009Z,13.40
2018-10-02T12:44:51.023Z,13.30
2018-10-02T12:45:51.030Z,14.60
2018-10-02T12:46:51.062Z,15.70
2018-10-02T12:47:51.010Z,16.90
2018-10-02T12:48:51.022Z,14.80
2018-10-02T12:49:51.049Z,15.40
2018-10-02T12:50:51.110Z,15.90
2018-10-02T12:51:51.021Z,14.90
2018-10-02T12:52:51.134Z,14.70